sensor_id;sensor_type;location;lat;lon;timestamp;pressure;altitude;pressure_sealevel;temperature
68440;BMP180;55421;51.600;5.718;2023-09-07T00:01:12;225818.80;;;20.20
68440;BMP180;55421;51.600;5.718;2023-09-07T00:03:39;225803.59;;;20.20
68440;BMP180;55421;51.600;5.718;2023-09-07T00:06:08;225790.41;;;20.20
68440;BMP180;55421;51.600;5.718;2023-09-07T00:08:35;225776.41;;;20.18
68440;BMP180;55421;51.600;5.718;2023-09-07T00:11:05;225768.80;;;20.10
68440;BMP180;55421;51.600;5.718;2023-09-07T00:13:33;225752.80;;;20.10
68440;BMP180;55421;51.600;5.718;2023-09-07T00:16:02;225748.80;;;20.10
68440;BMP180;55421;51.600;5.718;2023-09-07T00:18:30;225743.20;;;20.10
68440;BMP180;55421;51.600;5.718;2023-09-07T00:20:58;225728.41;;;20.10
68440;BMP180;55421;51.600;5.718;2023-09-07T00:23:24;225712.41;;;20.06
68440;BMP180;55421;51.600;5.718;2023-09-07T00:25:51;225703.80;;;20.00
68440;BMP180;55421;51.600;5.718;2023-09-07T00:28:17;225679.80;;;20.00
68440;BMP180;55421;51.600;5.718;2023-09-07T00:30:44;225647.41;;;19.92
68440;BMP180;55421;51.600;5.718;2023-09-07T00:33:10;225612.41;;;19.90
68440;BMP180;55421;51.600;5.718;2023-09-07T00:35:37;225592.00;;;19.80
68440;BMP180;55421;51.600;5.718;2023-09-07T00:38:03;225580.80;;;19.80
68440;BMP180;55421;51.600;5.718;2023-09-07T00:40:30;225568.00;;;19.80
68440;BMP180;55421;51.600;5.718;2023-09-07T00:42:59;225553.59;;;19.78
68440;BMP180;55421;51.600;5.718;2023-09-07T00:45:26;225547.59;;;19.72
68440;BMP180;55421;51.600;5.718;2023-09-07T00:47:53;225527.59;;;19.70
68440;BMP180;55421;51.600;5.718;2023-09-07T00:50:20;225512.80;;;19.70
68440;BMP180;55421;51.600;5.718;2023-09-07T00:52:48;225508.80;;;19.70
68440;BMP180;55421;51.600;5.718;2023-09-07T00:55:15;225507.00;;;19.70
68440;BMP180;55421;51.600;5.718;2023-09-07T00:57:42;225501.41;;;19.70
68440;BMP180;55421;51.600;5.718;2023-09-07T01:00:10;225495.59;;;19.68
68440;BMP180;55421;51.600;5.718;2023-09-07T01:02:36;225484.59;;;19.62
68440;BMP180;55421;51.600;5.718;2023-09-07T01:05:03;225478.20;;;19.60
68440;BMP180;55421;51.600;5.718;2023-09-07T01:07:46;225458.80;;;19.60
68440;BMP180;55421;51.600;5.718;2023-09-07T01:10:14;225428.80;;;19.52
68440;BMP180;55421;51.600;5.718;2023-09-07T01:12:41;225404.00;;;19.50
68440;BMP180;55421;51.600;5.718;2023-09-07T01:15:08;225392.41;;;19.50
68440;BMP180;55421;51.600;5.718;2023-09-07T01:17:36;225378.00;;;19.42
68440;BMP180;55421;51.600;5.718;2023-09-07T01:20:05;225365.20;;;19.42
68440;BMP180;55421;51.600;5.718;2023-09-07T01:22:37;225379.59;;;19.48
68440;BMP180;55421;51.600;5.718;2023-09-07T01:25:06;225396.00;;;19.50
68440;BMP180;55421;51.600;5.718;2023-09-07T01:27:34;225404.41;;;19.50
68440;BMP180;55421;51.600;5.718;2023-09-07T01:30:02;225414.80;;;19.50
68440;BMP180;55421;51.600;5.718;2023-09-07T01:32:29;225402.41;;;19.50
68440;BMP180;55421;51.600;5.718;2023-09-07T01:34:58;225394.80;;;19.50
68440;BMP180;55421;51.600;5.718;2023-09-07T01:37:25;225385.20;;;19.50
68440;BMP180;55421;51.600;5.718;2023-09-07T01:39:52;225386.00;;;19.50
68440;BMP180;55421;51.600;5.718;2023-09-07T01:42:18;225379.59;;;19.50
68440;BMP180;55421;51.600;5.718;2023-09-07T01:44:45;225371.59;;;19.40
68440;BMP180;55421;51.600;5.718;2023-09-07T01:47:11;225354.41;;;19.40
68440;BMP180;55421;51.600;5.718;2023-09-07T01:49:38;225342.41;;;19.40
68440;BMP180;55421;51.600;5.718;2023-09-07T01:52:05;225320.00;;;19.32
68440;BMP180;55421;51.600;5.718;2023-09-07T01:54:31;225296.20;;;19.30
68440;BMP180;55421;51.600;5.718;2023-09-07T01:56:58;225274.20;;;19.30
68440;BMP180;55421;51.600;5.718;2023-09-07T01:59:25;225250.20;;;19.20
68440;BMP180;55421;51.600;5.718;2023-09-07T02:01:51;225223.80;;;19.20
68440;BMP180;55421;51.600;5.718;2023-09-07T02:04:18;225201.80;;;19.10
68440;BMP180;55421;51.600;5.718;2023-09-07T02:06:44;225168.41;;;19.10
68440;BMP180;55421;51.600;5.718;2023-09-07T02:09:11;225143.00;;;19.00
68440;BMP180;55421;51.600;5.718;2023-09-07T02:11:38;225116.20;;;19.00
68440;BMP180;55421;51.600;5.718;2023-09-07T02:14:06;225087.41;;;18.90
68440;BMP180;55421;51.600;5.718;2023-09-07T02:16:33;225054.20;;;18.90
68440;BMP180;55421;51.600;5.718;2023-09-07T02:19:03;225040.59;;;18.90
68440;BMP180;55421;51.600;5.718;2023-09-07T02:21:30;225015.41;;;18.80
68440;BMP180;55421;51.600;5.718;2023-09-07T02:23:57;224997.59;;;18.80
68440;BMP180;55421;51.600;5.718;2023-09-07T02:26:23;224987.59;;;18.74
68440;BMP180;55421;51.600;5.718;2023-09-07T02:28:50;224981.59;;;18.70
68440;BMP180;55421;51.600;5.718;2023-09-07T02:31:17;224984.41;;;18.72
68440;BMP180;55421;51.600;5.718;2023-09-07T02:33:43;224985.59;;;18.78
68440;BMP180;55421;51.600;5.718;2023-09-07T02:36:10;224985.59;;;18.72
68440;BMP180;55421;51.600;5.718;2023-09-07T02:38:37;224984.00;;;18.72
68440;BMP180;55421;51.600;5.718;2023-09-07T02:41:03;224991.20;;;18.80
68440;BMP180;55421;51.600;5.718;2023-09-07T02:43:30;224994.80;;;18.80
68440;BMP180;55421;51.600;5.718;2023-09-07T02:45:57;224988.80;;;18.78
68440;BMP180;55421;51.600;5.718;2023-09-07T02:48:24;224982.80;;;18.70
68440;BMP180;55421;51.600;5.718;2023-09-07T02:50:50;224984.41;;;18.74
68440;BMP180;55421;51.600;5.718;2023-09-07T02:53:17;224982.80;;;18.70
68440;BMP180;55421;51.600;5.718;2023-09-07T02:55:44;224963.20;;;18.70
68440;BMP180;55421;51.600;5.718;2023-09-07T02:58:10;224955.20;;;18.70
68440;BMP180;55421;51.600;5.718;2023-09-07T03:00:45;224944.00;;;18.70
68440;BMP180;55421;51.600;5.718;2023-09-07T03:03:12;224950.41;;;18.70
68440;BMP180;55421;51.600;5.718;2023-09-07T03:05:43;224968.00;;;18.70
68440;BMP180;55421;51.600;5.718;2023-09-07T03:08:11;224978.80;;;18.70
68440;BMP180;55421;51.600;5.718;2023-09-07T03:10:39;224968.00;;;18.70
68440;BMP180;55421;51.600;5.718;2023-09-07T03:13:07;224963.20;;;18.70
68440;BMP180;55421;51.600;5.718;2023-09-07T03:15:34;224960.00;;;18.70
68440;BMP180;55421;51.600;5.718;2023-09-07T03:18:01;224927.20;;;18.70
68440;BMP180;55421;51.600;5.718;2023-09-07T03:20:27;224909.80;;;18.60
68440;BMP180;55421;51.600;5.718;2023-09-07T03:22:54;224895.00;;;18.60
68440;BMP180;55421;51.600;5.718;2023-09-07T03:25:22;224870.20;;;18.58
68440;BMP180;55421;51.600;5.718;2023-09-07T03:27:48;224849.59;;;18.50
68440;BMP180;55421;51.600;5.718;2023-09-07T03:30:16;224857.80;;;18.52
68440;BMP180;55421;51.600;5.718;2023-09-07T03:32:42;224858.20;;;18.52
68440;BMP180;55421;51.600;5.718;2023-09-07T03:35:09;224863.80;;;18.54
68440;BMP180;55421;51.600;5.718;2023-09-07T03:37:37;224871.00;;;18.60
68440;BMP180;55421;51.600;5.718;2023-09-07T03:40:05;224865.00;;;18.54
68440;BMP180;55421;51.600;5.718;2023-09-07T03:42:32;224861.41;;;18.54
68440;BMP180;55421;51.600;5.718;2023-09-07T03:44:58;224859.00;;;18.50
68440;BMP180;55421;51.600;5.718;2023-09-07T03:47:25;224841.59;;;18.50
68440;BMP180;55421;51.600;5.718;2023-09-07T03:49:56;224811.59;;;18.48
68440;BMP180;55421;51.600;5.718;2023-09-07T03:52:23;224797.20;;;18.40
68440;BMP180;55421;51.600;5.718;2023-09-07T03:54:51;224776.00;;;18.40
68440;BMP180;55421;51.600;5.718;2023-09-07T03:57:19;224762.41;;;18.40
68440;BMP180;55421;51.600;5.718;2023-09-07T03:59:47;224756.00;;;18.32
68440;BMP180;55421;51.600;5.718;2023-09-07T04:02:15;224748.00;;;18.30
68440;BMP180;55421;51.600;5.718;2023-09-07T04:04:42;224736.41;;;18.30
68440;BMP180;55421;51.600;5.718;2023-09-07T04:07:08;224716.80;;;18.30
68440;BMP180;55421;51.600;5.718;2023-09-07T04:09:35;224699.41;;;18.26
68440;BMP180;55421;51.600;5.718;2023-09-07T04:12:01;224682.20;;;18.20
68440;BMP180;55421;51.600;5.718;2023-09-07T04:14:30;224653.59;;;18.20
68440;BMP180;55421;51.600;5.718;2023-09-07T04:16:57;224625.20;;;18.10
68440;BMP180;55421;51.600;5.718;2023-09-07T04:19:24;224610.80;;;18.10
68440;BMP180;55421;51.600;5.718;2023-09-07T04:21:51;224592.41;;;18.06
68440;BMP180;55421;51.600;5.718;2023-09-07T04:24:17;224578.80;;;18.00
68440;BMP180;55421;51.600;5.718;2023-09-07T04:26:44;224566.41;;;18.00
68440;BMP180;55421;51.600;5.718;2023-09-07T04:29:11;224561.59;;;18.00
68440;BMP180;55421;51.600;5.718;2023-09-07T04:31:39;224535.20;;;18.00
68440;BMP180;55421;51.600;5.718;2023-09-07T04:34:05;224526.20;;;17.94
68440;BMP180;55421;51.600;5.718;2023-09-07T04:36:32;224515.80;;;17.90
68440;BMP180;55421;51.600;5.718;2023-09-07T04:38:58;224502.59;;;17.90
68440;BMP180;55421;51.600;5.718;2023-09-07T04:41:25;224481.80;;;17.90
68440;BMP180;55421;51.600;5.718;2023-09-07T04:43:52;224461.00;;;17.80
68440;BMP180;55421;51.600;5.718;2023-09-07T04:46:22;224443.80;;;17.80
68440;BMP180;55421;51.600;5.718;2023-09-07T04:48:49;224426.20;;;17.80
68440;BMP180;55421;51.600;5.718;2023-09-07T04:51:16;224401.80;;;17.70
68440;BMP180;55421;51.600;5.718;2023-09-07T04:53:43;224388.00;;;17.70
68440;BMP180;55421;51.600;5.718;2023-09-07T04:56:09;224373.41;;;17.70
68440;BMP180;55421;51.600;5.718;2023-09-07T04:58:36;224361.80;;;17.70
68440;BMP180;55421;51.600;5.718;2023-09-07T05:01:07;224351.00;;;17.60
68440;BMP180;55421;51.600;5.718;2023-09-07T05:03:36;224329.80;;;17.60
68440;BMP180;55421;51.600;5.718;2023-09-07T05:06:04;224307.80;;;17.60
68440;BMP180;55421;51.600;5.718;2023-09-07T05:08:31;224297.41;;;17.50
68440;BMP180;55421;51.600;5.718;2023-09-07T05:11:01;224299.00;;;17.50
68440;BMP180;55421;51.600;5.718;2023-09-07T05:13:28;224301.80;;;17.54
68440;BMP180;55421;51.600;5.718;2023-09-07T05:15:56;224320.20;;;17.60
68440;BMP180;55421;51.600;5.718;2023-09-07T05:18:23;224343.00;;;17.60
68440;BMP180;55421;51.600;5.718;2023-09-07T05:20:49;224361.80;;;17.70
68440;BMP180;55421;51.600;5.718;2023-09-07T05:23:19;224382.00;;;17.70
68440;BMP180;55421;51.600;5.718;2023-09-07T05:25:52;224413.00;;;17.72
68440;BMP180;55421;51.600;5.718;2023-09-07T05:28:21;224443.80;;;17.80
68440;BMP180;55421;51.600;5.718;2023-09-07T05:30:48;224477.00;;;17.90
68440;BMP180;55421;51.600;5.718;2023-09-07T05:33:16;224502.59;;;17.90
68440;BMP180;55421;51.600;5.718;2023-09-07T05:35:43;224529.41;;;17.98
68440;BMP180;55421;51.600;5.718;2023-09-07T05:38:10;224568.00;;;18.00
68440;BMP180;55421;51.600;5.718;2023-09-07T05:40:39;224590.80;;;18.06
68440;BMP180;55421;51.600;5.718;2023-09-07T05:43:06;224618.80;;;18.10
68440;BMP180;55421;51.600;5.718;2023-09-07T05:45:39;224644.41;;;18.20
68440;BMP180;55421;51.600;5.718;2023-09-07T05:48:07;224682.20;;;18.20
68440;BMP180;55421;51.600;5.718;2023-09-07T05:50:36;224718.20;;;18.30
68440;BMP180;55421;51.600;5.718;2023-09-07T05:53:04;224743.20;;;18.30
68440;BMP180;55421;51.600;5.718;2023-09-07T05:55:31;224776.00;;;18.40
68440;BMP180;55421;51.600;5.718;2023-09-07T05:57:58;224802.00;;;18.42
68440;BMP180;55421;51.600;5.718;2023-09-07T06:00:25;224830.41;;;18.50
68440;BMP180;55421;51.600;5.718;2023-09-07T06:02:52;224866.59;;;18.58
68440;BMP180;55421;51.600;5.718;2023-09-07T06:05:19;224903.80;;;18.60
68440;BMP180;55421;51.600;5.718;2023-09-07T06:07:45;224945.59;;;18.70
68440;BMP180;55421;51.600;5.718;2023-09-07T06:10:12;224969.59;;;18.70
68440;BMP180;55421;51.600;5.718;2023-09-07T06:12:39;224992.00;;;18.80
68440;BMP180;55421;51.600;5.718;2023-09-07T06:15:07;225015.20;;;18.80
68440;BMP180;55421;51.600;5.718;2023-09-07T06:17:33;225035.00;;;18.88
68440;BMP180;55421;51.600;5.718;2023-09-07T06:20:00;225063.80;;;18.90
68440;BMP180;55421;51.600;5.718;2023-09-07T06:22:27;225094.59;;;18.98
68440;BMP180;55421;51.600;5.718;2023-09-07T06:24:53;225131.00;;;19.00
68440;BMP180;55421;51.600;5.718;2023-09-07T06:27:20;225160.59;;;19.10
68440;BMP180;55421;51.600;5.718;2023-09-07T06:29:46;225193.59;;;19.10
68440;BMP180;55421;51.600;5.718;2023-09-07T06:32:12;225228.20;;;19.20
68440;BMP180;55421;51.600;5.718;2023-09-07T06:34:39;225265.00;;;19.24
68440;BMP180;55421;51.600;5.718;2023-09-07T06:37:06;225295.00;;;19.30
68440;BMP180;55421;51.600;5.718;2023-09-07T06:39:33;225326.00;;;19.40
68440;BMP180;55421;51.600;5.718;2023-09-07T06:42:00;225352.80;;;19.40
68440;BMP180;55421;51.600;5.718;2023-09-07T06:44:26;225379.59;;;19.50
68440;BMP180;55421;51.600;5.718;2023-09-07T06:46:53;225413.20;;;19.50
68440;BMP180;55421;51.600;5.718;2023-09-07T06:49:19;225450.20;;;19.60
68440;BMP180;55421;51.600;5.718;2023-09-07T06:51:46;225495.59;;;19.70
68440;BMP180;55421;51.600;5.718;2023-09-07T06:54:13;225535.59;;;19.70
68440;BMP180;55421;51.600;5.718;2023-09-07T06:56:40;225573.59;;;19.80
68440;BMP180;55421;51.600;5.718;2023-09-07T06:59:06;225609.20;;;19.90
68440;BMP180;55421;51.600;5.718;2023-09-07T07:01:33;225657.00;;;20.00
68440;BMP180;55421;51.600;5.718;2023-09-07T07:03:59;225694.20;;;20.00
68440;BMP180;55421;51.600;5.718;2023-09-07T07:06:26;225749.20;;;20.10
68440;BMP180;55421;51.600;5.718;2023-09-07T07:08:53;225792.00;;;20.20
68440;BMP180;55421;51.600;5.718;2023-09-07T07:11:19;225833.00;;;20.30
68440;BMP180;55421;51.600;5.718;2023-09-07T07:13:46;225879.00;;;20.30
68440;BMP180;55421;51.600;5.718;2023-09-07T07:16:13;225914.20;;;20.40
68440;BMP180;55421;51.600;5.718;2023-09-07T07:18:40;225946.59;;;20.50
68440;BMP180;55421;51.600;5.718;2023-09-07T07:21:06;225991.80;;;20.50
68440;BMP180;55421;51.600;5.718;2023-09-07T07:23:33;226028.59;;;20.60
68440;BMP180;55421;51.600;5.718;2023-09-07T07:25:59;226071.00;;;20.70
68440;BMP180;55421;51.600;5.718;2023-09-07T07:28:26;226117.00;;;20.80
68440;BMP180;55421;51.600;5.718;2023-09-07T07:30:52;226162.00;;;20.82
68440;BMP180;55421;51.600;5.718;2023-09-07T07:33:20;226197.20;;;20.90
68440;BMP180;55421;51.600;5.718;2023-09-07T07:35:46;226246.59;;;21.00
68440;BMP180;55421;51.600;5.718;2023-09-07T07:38:14;226308.20;;;21.10
68440;BMP180;55421;51.600;5.718;2023-09-07T07:40:40;226369.59;;;21.20
68440;BMP180;55421;51.600;5.718;2023-09-07T07:43:08;226432.00;;;21.30
68440;BMP180;55421;51.600;5.718;2023-09-07T07:45:36;226472.20;;;21.40
68440;BMP180;55421;51.600;5.718;2023-09-07T07:48:05;226546.00;;;21.50
68440;BMP180;55421;51.600;5.718;2023-09-07T07:50:40;226601.20;;;21.60
68440;BMP180;55421;51.600;5.718;2023-09-07T07:53:07;226654.59;;;21.70
68440;BMP180;55421;51.600;5.718;2023-09-07T07:55:37;226692.20;;;21.80
68440;BMP180;55421;51.600;5.718;2023-09-07T07:58:08;226743.41;;;21.90
68440;BMP180;55421;51.600;5.718;2023-09-07T08:00:36;226811.00;;;22.00
68440;BMP180;55421;51.600;5.718;2023-09-07T08:03:03;226873.00;;;22.10
68440;BMP180;55421;51.600;5.718;2023-09-07T08:05:32;226935.00;;;22.20
68440;BMP180;55421;51.600;5.718;2023-09-07T08:07:59;227004.20;;;22.30
68440;BMP180;55421;51.600;5.718;2023-09-07T08:10:26;227067.41;;;22.44
68440;BMP180;55421;51.600;5.718;2023-09-07T08:12:54;227105.00;;;22.50
68440;BMP180;55421;51.600;5.718;2023-09-07T08:15:22;227148.00;;;22.60
68440;BMP180;55421;51.600;5.718;2023-09-07T08:17:49;227204.41;;;22.70
68440;BMP180;55421;51.600;5.718;2023-09-07T08:20:15;227265.20;;;22.80
68440;BMP180;55421;51.600;5.718;2023-09-07T08:22:42;227324.41;;;22.90
68440;BMP180;55421;51.600;5.718;2023-09-07T08:25:11;227377.59;;;23.00
68440;BMP180;55421;51.600;5.718;2023-09-07T08:27:42;227431.00;;;23.10
68440;BMP180;55421;51.600;5.718;2023-09-07T08:30:15;227479.00;;;23.20
68440;BMP180;55421;51.600;5.718;2023-09-07T08:32:44;227515.00;;;23.24
68440;BMP180;55421;51.600;5.718;2023-09-07T08:35:12;227569.20;;;23.30
68440;BMP180;55421;51.600;5.718;2023-09-07T08:37:40;227613.41;;;23.40
68440;BMP180;55421;51.600;5.718;2023-09-07T08:40:08;227642.20;;;23.50
68440;BMP180;55421;51.600;5.718;2023-09-07T08:42:38;227678.20;;;23.50
68440;BMP180;55421;51.600;5.718;2023-09-07T08:45:08;227721.00;;;23.60
68440;BMP180;55421;51.600;5.718;2023-09-07T08:47:37;227748.20;;;23.68
68440;BMP180;55421;51.600;5.718;2023-09-07T08:50:06;227781.59;;;23.70
68440;BMP180;55421;51.600;5.718;2023-09-07T08:52:34;227818.59;;;23.80
68440;BMP180;55421;51.600;5.718;2023-09-07T08:55:02;227868.59;;;23.86
68440;BMP180;55421;51.600;5.718;2023-09-07T08:57:32;227924.59;;;23.96
68440;BMP180;55421;51.600;5.718;2023-09-07T08:59:59;227958.80;;;24.00
68440;BMP180;55421;51.600;5.718;2023-09-07T09:02:26;228009.59;;;24.10
68440;BMP180;55421;51.600;5.718;2023-09-07T09:04:52;228053.59;;;24.20
68440;BMP180;55421;51.600;5.718;2023-09-07T09:07:19;228096.20;;;24.30
68440;BMP180;55421;51.600;5.718;2023-09-07T09:09:47;228144.41;;;24.36
68440;BMP180;55421;51.600;5.718;2023-09-07T09:12:14;228182.00;;;24.40
68440;BMP180;55421;51.600;5.718;2023-09-07T09:14:44;228193.20;;;24.40
68440;BMP180;55421;51.600;5.718;2023-09-07T09:17:13;228230.41;;;24.50
68440;BMP180;55421;51.600;5.718;2023-09-07T09:19:40;228280.59;;;24.60
68440;BMP180;55421;51.600;5.718;2023-09-07T09:22:08;228344.80;;;24.70
68440;BMP180;55421;51.600;5.718;2023-09-07T09:24:35;228388.41;;;24.80
68440;BMP180;55421;51.600;5.718;2023-09-07T09:27:03;228441.00;;;24.90
68440;BMP180;55421;51.600;5.718;2023-09-07T09:29:36;228485.80;;;24.98
68440;BMP180;55421;51.600;5.718;2023-09-07T09:32:04;228522.20;;;25.00
68440;BMP180;55421;51.600;5.718;2023-09-07T09:34:33;228551.00;;;25.10
68440;BMP180;55421;51.600;5.718;2023-09-07T09:37:01;228589.59;;;25.10
68440;BMP180;55421;51.600;5.718;2023-09-07T09:39:30;228623.80;;;25.20
68440;BMP180;55421;51.600;5.718;2023-09-07T09:41:56;228646.20;;;25.20
68440;BMP180;55421;51.600;5.718;2023-09-07T09:44:23;228697.41;;;25.30
68440;BMP180;55421;51.600;5.718;2023-09-07T09:46:53;228748.59;;;25.40
68440;BMP180;55421;51.600;5.718;2023-09-07T09:49:22;228806.41;;;25.50
68440;BMP180;55421;51.600;5.718;2023-09-07T09:51:49;228853.00;;;25.60
68440;BMP180;55421;51.600;5.718;2023-09-07T09:54:20;228926.20;;;25.70
68440;BMP180;55421;51.600;5.718;2023-09-07T09:56:48;228982.80;;;25.80
68440;BMP180;55421;51.600;5.718;2023-09-07T09:59:15;229006.80;;;25.90
68440;BMP180;55421;51.600;5.718;2023-09-07T10:01:47;229045.20;;;25.90
68440;BMP180;55421;51.600;5.718;2023-09-07T10:04:18;229082.80;;;26.00
68440;BMP180;55421;51.600;5.718;2023-09-07T10:06:56;229119.59;;;26.10
68440;BMP180;55421;51.600;5.718;2023-09-07T10:09:29;229158.00;;;26.10
68440;BMP180;55421;51.600;5.718;2023-09-07T10:11:59;229216.00;;;26.20
68440;BMP180;55421;51.600;5.718;2023-09-07T10:14:40;229276.20;;;26.40
68440;BMP180;55421;51.600;5.718;2023-09-07T10:17:08;229342.59;;;26.50
68440;BMP180;55421;51.600;5.718;2023-09-07T10:19:35;229385.59;;;26.50
68440;BMP180;55421;51.600;5.718;2023-09-07T10:22:04;229419.20;;;26.60
68440;BMP180;55421;51.600;5.718;2023-09-07T10:24:33;229472.59;;;26.70
68440;BMP180;55421;51.600;5.718;2023-09-07T10:27:07;229511.00;;;26.80
68440;BMP180;55421;51.600;5.718;2023-09-07T10:29:50;229549.41;;;26.84
68440;BMP180;55421;51.600;5.718;2023-09-07T10:32:18;229592.20;;;26.90
68440;BMP180;55421;51.600;5.718;2023-09-07T10:34:45;229636.59;;;27.00
68440;BMP180;55421;51.600;5.718;2023-09-07T10:37:13;229663.80;;;27.04
68440;BMP180;55421;51.600;5.718;2023-09-07T10:39:42;229705.41;;;27.10
68440;BMP180;55421;51.600;5.718;2023-09-07T10:42:23;229764.59;;;27.20
68440;BMP180;55421;51.600;5.718;2023-09-07T10:44:50;229818.00;;;27.30
68440;BMP180;55421;51.600;5.718;2023-09-07T10:47:17;229868.20;;;27.40
68440;BMP180;55421;51.600;5.718;2023-09-07T10:49:44;229905.41;;;27.48
68440;BMP180;55421;51.600;5.718;2023-09-07T10:52:11;229957.00;;;27.58
68440;BMP180;55421;51.600;5.718;2023-09-07T10:54:37;230009.20;;;27.66
68440;BMP180;55421;51.600;5.718;2023-09-07T10:57:11;230024.00;;;27.70
68440;BMP180;55421;51.600;5.718;2023-09-07T10:59:46;230070.41;;;27.80
68440;BMP180;55421;51.600;5.718;2023-09-07T11:02:14;230110.20;;;27.80
68440;BMP180;55421;51.600;5.718;2023-09-07T11:04:41;230148.80;;;27.90
68440;BMP180;55421;51.600;5.718;2023-09-07T11:07:08;230185.59;;;27.96
68440;BMP180;55421;51.600;5.718;2023-09-07T11:09:40;230212.80;;;28.00
68440;BMP180;55421;51.600;5.718;2023-09-07T11:12:07;230220.80;;;28.00
68440;BMP180;55421;51.600;5.718;2023-09-07T11:14:34;230245.20;;;28.10
68440;BMP180;55421;51.600;5.718;2023-09-07T11:17:01;230264.41;;;28.10
68440;BMP180;55421;51.600;5.718;2023-09-07T11:19:34;230264.41;;;28.10
68440;BMP180;55421;51.600;5.718;2023-09-07T11:22:00;230273.80;;;28.10
68440;BMP180;55421;51.600;5.718;2023-09-07T11:24:27;230276.00;;;28.10
68440;BMP180;55421;51.600;5.718;2023-09-07T11:26:53;230290.20;;;28.16
68440;BMP180;55421;51.600;5.718;2023-09-07T11:29:20;230297.41;;;28.20
68440;BMP180;55421;51.600;5.718;2023-09-07T11:31:46;230316.20;;;28.20
68440;BMP180;55421;51.600;5.718;2023-09-07T11:34:15;230322.59;;;28.20
68440;BMP180;55421;51.600;5.718;2023-09-07T11:36:43;230321.80;;;28.20
68440;BMP180;55421;51.600;5.718;2023-09-07T11:39:12;230305.00;;;28.20
68440;BMP180;55421;51.600;5.718;2023-09-07T11:41:43;230306.59;;;28.20
68440;BMP180;55421;51.600;5.718;2023-09-07T11:44:11;230292.20;;;28.14
68440;BMP180;55421;51.600;5.718;2023-09-07T11:46:38;230273.80;;;28.10
68440;BMP180;55421;51.600;5.718;2023-09-07T11:49:04;230275.80;;;28.10
68440;BMP180;55421;51.600;5.718;2023-09-07T11:51:32;230284.00;;;28.10
68440;BMP180;55421;51.600;5.718;2023-09-07T11:53:58;230273.80;;;28.10
68440;BMP180;55421;51.600;5.718;2023-09-07T11:56:25;230272.41;;;28.10
68440;BMP180;55421;51.600;5.718;2023-09-07T11:58:53;230254.80;;;28.10
68440;BMP180;55421;51.600;5.718;2023-09-07T12:01:21;230263.20;;;28.10
68440;BMP180;55421;51.600;5.718;2023-09-07T12:03:48;230260.41;;;28.10
68440;BMP180;55421;51.600;5.718;2023-09-07T12:06:14;230240.00;;;28.10
68440;BMP180;55421;51.600;5.718;2023-09-07T12:08:58;230233.59;;;28.00
68440;BMP180;55421;51.600;5.718;2023-09-07T12:11:24;230228.80;;;28.02
68440;BMP180;55421;51.600;5.718;2023-09-07T12:13:51;230228.80;;;28.00
68440;BMP180;55421;51.600;5.718;2023-09-07T12:16:17;230225.59;;;28.00
68440;BMP180;55421;51.600;5.718;2023-09-07T12:18:44;230232.00;;;28.02
68440;BMP180;55421;51.600;5.718;2023-09-07T12:21:10;230227.20;;;28.02
68440;BMP180;55421;51.600;5.718;2023-09-07T12:23:37;230241.59;;;28.06
68440;BMP180;55421;51.600;5.718;2023-09-07T12:26:04;230260.41;;;28.10
68440;BMP180;55421;51.600;5.718;2023-09-07T12:28:31;230274.20;;;28.10
68440;BMP180;55421;51.600;5.718;2023-09-07T12:30:57;230294.59;;;28.20
68440;BMP180;55421;51.600;5.718;2023-09-07T12:33:24;230306.20;;;28.20
68440;BMP180;55421;51.600;5.718;2023-09-07T12:35:51;230315.41;;;28.20
68440;BMP180;55421;51.600;5.718;2023-09-07T12:38:18;230321.00;;;28.20
68440;BMP180;55421;51.600;5.718;2023-09-07T12:40:46;230330.59;;;28.20
68440;BMP180;55421;51.600;5.718;2023-09-07T12:43:12;230337.00;;;28.20
68440;BMP180;55421;51.600;5.718;2023-09-07T12:45:39;230345.00;;;28.22
68440;BMP180;55421;51.600;5.718;2023-09-07T12:48:06;230355.80;;;28.30
68440;BMP180;55421;51.600;5.718;2023-09-07T12:50:32;230371.00;;;28.30
68440;BMP180;55421;51.600;5.718;2023-09-07T12:52:59;230370.20;;;28.30
68440;BMP180;55421;51.600;5.718;2023-09-07T12:55:25;230377.20;;;28.30
68440;BMP180;55421;51.600;5.718;2023-09-07T12:57:52;230394.80;;;28.30
68440;BMP180;55421;51.600;5.718;2023-09-07T13:00:18;230406.00;;;28.30
68440;BMP180;55421;51.600;5.718;2023-09-07T13:02:45;230406.00;;;28.36
68440;BMP180;55421;51.600;5.718;2023-09-07T13:05:12;230402.80;;;28.30
68440;BMP180;55421;51.600;5.718;2023-09-07T13:07:39;230401.20;;;28.30
68440;BMP180;55421;51.600;5.718;2023-09-07T13:10:07;230399.59;;;28.30
68440;BMP180;55421;51.600;5.718;2023-09-07T13:12:34;230399.59;;;28.30
68440;BMP180;55421;51.600;5.718;2023-09-07T13:15:00;230394.80;;;28.30
68440;BMP180;55421;51.600;5.718;2023-09-07T13:17:27;230393.20;;;28.30
68440;BMP180;55421;51.600;5.718;2023-09-07T13:19:53;230394.80;;;28.30
68440;BMP180;55421;51.600;5.718;2023-09-07T13:22:20;230402.80;;;28.32
68440;BMP180;55421;51.600;5.718;2023-09-07T13:24:46;230402.80;;;28.32
68440;BMP180;55421;51.600;5.718;2023-09-07T13:27:13;230407.59;;;28.40
68440;BMP180;55421;51.600;5.718;2023-09-07T13:29:39;230414.00;;;28.40
68440;BMP180;55421;51.600;5.718;2023-09-07T13:32:05;230409.20;;;28.38
68440;BMP180;55421;51.600;5.718;2023-09-07T13:34:32;230410.80;;;28.40
68440;BMP180;55421;51.600;5.718;2023-09-07T13:36:59;230407.59;;;28.38
68440;BMP180;55421;51.600;5.718;2023-09-07T13:39:25;230418.80;;;28.40
68440;BMP180;55421;51.600;5.718;2023-09-07T13:41:52;230434.80;;;28.40
68440;BMP180;55421;51.600;5.718;2023-09-07T13:44:18;230439.59;;;28.40
68440;BMP180;55421;51.600;5.718;2023-09-07T13:46:45;230447.59;;;28.40
68440;BMP180;55421;51.600;5.718;2023-09-07T13:49:12;230449.20;;;28.40
68440;BMP180;55421;51.600;5.718;2023-09-07T13:51:40;230455.59;;;28.40
68440;BMP180;55421;51.600;5.718;2023-09-07T13:54:08;230468.20;;;28.48
68440;BMP180;55421;51.600;5.718;2023-09-07T13:56:35;230474.20;;;28.50
68440;BMP180;55421;51.600;5.718;2023-09-07T13:59:03;230478.59;;;28.50